sensor_id;sensor_type;location;lat;lon;timestamp;pressure;altitude;pressure_sealevel;temperature;humidity
26807;BME280;14380;49.910;6.792;2023-03-15T00:01:13;98603.72;;;1.29;100.00
26807;BME280;14380;49.910;6.792;2023-03-15T00:03:41;98597.59;;;1.33;100.00
26807;BME280;14380;49.910;6.792;2023-03-15T00:06:08;98602.69;;;1.38;100.00
26807;BME280;14380;49.910;6.792;2023-03-15T00:08:35;98610.69;;;1.28;100.00
26807;BME280;14380;49.910;6.792;2023-03-15T00:11:01;98606.09;;;1.40;100.00
26807;BME280;14380;49.910;6.792;2023-03-15T00:13:29;98601.84;;;1.37;100.00
26807;BME280;14380;49.910;6.792;2023-03-15T00:15:58;98592.97;;;1.46;100.00
26807;BME280;14380;49.910;6.792;2023-03-15T00:18:26;98586.66;;;1.58;100.00
26807;BME280;14380;49.910;6.792;2023-03-15T00:20:52;98592.03;;;1.50;100.00
26807;BME280;14380;49.910;6.792;2023-03-15T00:23:19;98585.28;;;1.41;100.00
26807;BME280;14380;49.910;6.792;2023-03-15T00:25:46;98586.47;;;1.25;100.00
26807;BME280;14380;49.910;6.792;2023-03-15T00:28:13;98591.44;;;1.36;100.00
26807;BME280;14380;49.910;6.792;2023-03-15T00:30:40;98590.34;;;1.47;100.00
26807;BME280;14380;49.910;6.792;2023-03-15T00:33:10;98600.41;;;1.21;100.00
26807;BME280;14380;49.910;6.792;2023-03-15T00:35:39;98621.44;;;1.10;100.00
26807;BME280;14380;49.910;6.792;2023-03-15T00:38:06;98615.19;;;1.18;100.00
26807;BME280;14380;49.910;6.792;2023-03-15T00:40:33;98610.25;;;1.06;100.00
26807;BME280;14380;49.910;6.792;2023-03-15T00:43:01;98613.63;;;1.10;100.00
26807;BME280;14380;49.910;6.792;2023-03-15T00:45:28;98616.28;;;1.07;100.00
26807;BME280;14380;49.910;6.792;2023-03-15T00:47:54;98618.88;;;1.08;100.00
26807;BME280;14380;49.910;6.792;2023-03-15T00:50:22;98616.72;;;0.85;100.00
26807;BME280;14380;49.910;6.792;2023-03-15T00:52:48;98612.97;;;0.98;100.00
26807;BME280;14380;49.910;6.792;2023-03-15T00:55:17;98608.59;;;1.00;100.00
26807;BME280;14380;49.910;6.792;2023-03-15T00:57:44;98619.44;;;0.77;100.00
26807;BME280;14380;49.910;6.792;2023-03-15T01:00:13;98613.75;;;1.03;100.00
26807;BME280;14380;49.910;6.792;2023-03-15T01:02:40;98626.34;;;0.78;100.00
26807;BME280;14380;49.910;6.792;2023-03-15T01:05:08;98627.25;;;0.76;100.00
26807;BME280;14380;49.910;6.792;2023-03-15T01:07:36;98634.06;;;0.83;100.00
26807;BME280;14380;49.910;6.792;2023-03-15T01:10:05;98626.22;;;0.84;100.00
26807;BME280;14380;49.910;6.792;2023-03-15T01:12:32;98637.13;;;0.56;100.00
26807;BME280;14380;49.910;6.792;2023-03-15T01:15:00;98643.06;;;0.63;100.00
26807;BME280;14380;49.910;6.792;2023-03-15T01:17:27;98642.81;;;0.79;100.00
26807;BME280;14380;49.910;6.792;2023-03-15T01:19:53;98639.38;;;0.77;100.00
26807;BME280;14380;49.910;6.792;2023-03-15T01:22:20;98631.53;;;0.78;100.00
26807;BME280;14380;49.910;6.792;2023-03-15T01:24:48;98634.38;;;0.66;100.00
26807;BME280;14380;49.910;6.792;2023-03-15T01:27:14;98634.25;;;0.72;100.00
26807;BME280;14380;49.910;6.792;2023-03-15T01:29:41;98639.69;;;0.58;100.00
26807;BME280;14380;49.910;6.792;2023-03-15T01:32:08;98640.31;;;0.72;100.00
26807;BME280;14380;49.910;6.792;2023-03-15T01:34:34;98643.00;;;0.66;100.00
26807;BME280;14380;49.910;6.792;2023-03-15T01:37:01;98645.50;;;0.72;100.00
26807;BME280;14380;49.910;6.792;2023-03-15T01:39:28;98646.38;;;0.71;100.00
26807;BME280;14380;49.910;6.792;2023-03-15T01:41:56;98653.59;;;0.55;100.00
26807;BME280;14380;49.910;6.792;2023-03-15T01:44:23;98656.91;;;0.64;100.00
26807;BME280;14380;49.910;6.792;2023-03-15T01:46:50;98663.06;;;0.58;100.00
26807;BME280;14380;49.910;6.792;2023-03-15T01:49:18;98662.41;;;0.45;100.00
26807;BME280;14380;49.910;6.792;2023-03-15T01:51:52;98664.09;;;0.48;100.00
26807;BME280;14380;49.910;6.792;2023-03-15T01:54:23;98672.78;;;0.45;100.00
26807;BME280;14380;49.910;6.792;2023-03-15T01:56:56;98670.22;;;0.43;100.00
26807;BME280;14380;49.910;6.792;2023-03-15T01:59:26;98669.22;;;0.51;100.00
26807;BME280;14380;49.910;6.792;2023-03-15T02:01:55;98657.34;;;0.36;100.00
26807;BME280;14380;49.910;6.792;2023-03-15T02:04:24;98661.63;;;0.40;100.00
26807;BME280;14380;49.910;6.792;2023-03-15T02:06:55;98659.75;;;0.47;100.00
26807;BME280;14380;49.910;6.792;2023-03-15T02:09:27;98664.03;;;0.52;100.00
26807;BME280;14380;49.910;6.792;2023-03-15T02:11:57;98655.50;;;0.44;100.00
26807;BME280;14380;49.910;6.792;2023-03-15T02:14:25;98651.25;;;0.38;100.00
26807;BME280;14380;49.910;6.792;2023-03-15T02:16:51;98653.72;;;0.44;100.00
26807;BME280;14380;49.910;6.792;2023-03-15T02:19:31;98658.31;;;0.30;100.00
26807;BME280;14380;49.910;6.792;2023-03-15T02:22:09;98659.19;;;0.27;100.00
26807;BME280;14380;49.910;6.792;2023-03-15T02:24:45;98656.69;;;0.23;100.00
26807;BME280;14380;49.910;6.792;2023-03-15T02:27:21;98664.28;;;0.35;100.00
26807;BME280;14380;49.910;6.792;2023-03-15T02:29:50;98658.22;;;0.35;100.00
26807;BME280;14380;49.910;6.792;2023-03-15T02:32:16;98662.56;;;0.34;100.00
26807;BME280;14380;49.910;6.792;2023-03-15T02:34:43;98656.50;;;0.34;100.00
26807;BME280;14380;49.910;6.792;2023-03-15T02:37:09;98658.28;;;0.32;100.00
26807;BME280;14380;49.910;6.792;2023-03-15T02:39:36;98662.22;;;0.56;100.00
26807;BME280;14380;49.910;6.792;2023-03-15T02:42:02;98653.63;;;0.52;100.00
26807;BME280;14380;49.910;6.792;2023-03-15T02:44:31;98652.56;;;0.64;100.00
26807;BME280;14380;49.910;6.792;2023-03-15T02:47:01;98651.81;;;0.57;100.00
26807;BME280;14380;49.910;6.792;2023-03-15T02:49:30;98654.00;;;0.27;100.00
26807;BME280;14380;49.910;6.792;2023-03-15T02:51:58;98653.22;;;0.22;100.00
26807;BME280;14380;49.910;6.792;2023-03-15T02:54:24;98656.47;;;0.38;100.00
26807;BME280;14380;49.910;6.792;2023-03-15T02:56:51;98655.66;;;0.33;100.00
26807;BME280;14380;49.910;6.792;2023-03-15T02:59:17;98659.91;;;0.39;100.00
26807;BME280;14380;49.910;6.792;2023-03-15T03:01:45;98655.44;;;0.46;100.00
26807;BME280;14380;49.910;6.792;2023-03-15T03:04:12;98658.94;;;0.44;100.00
26807;BME280;14380;49.910;6.792;2023-03-15T03:06:38;98655.34;;;0.52;100.00
26807;BME280;14380;49.910;6.792;2023-03-15T03:09:08;98654.59;;;0.45;100.00
26807;BME280;14380;49.910;6.792;2023-03-15T03:11:35;98655.06;;;0.69;100.00
26807;BME280;14380;49.910;6.792;2023-03-15T03:14:01;98655.31;;;0.56;100.00
26807;BME280;14380;49.910;6.792;2023-03-15T03:16:28;98652.59;;;0.63;100.00
26807;BME280;14380;49.910;6.792;2023-03-15T03:18:55;98655.31;;;0.56;100.00
26807;BME280;14380;49.910;6.792;2023-03-15T03:21:22;98656.03;;;0.63;100.00
26807;BME280;14380;49.910;6.792;2023-03-15T03:23:48;98654.47;;;0.53;100.00
26807;BME280;14380;49.910;6.792;2023-03-15T03:26:17;98657.34;;;0.36;100.00
26807;BME280;14380;49.910;6.792;2023-03-15T03:28:45;98646.72;;;0.50;100.00
26807;BME280;14380;49.910;6.792;2023-03-15T03:31:16;98649.53;;;0.37;100.00
26807;BME280;14380;49.910;6.792;2023-03-15T03:33:43;98650.28;;;0.44;100.00
26807;BME280;14380;49.910;6.792;2023-03-15T03:36:11;98650.19;;;0.50;100.00
26807;BME280;14380;49.910;6.792;2023-03-15T03:38:38;98645.00;;;0.50;100.00
26807;BME280;14380;49.910;6.792;2023-03-15T03:41:05;98648.34;;;0.58;100.00
26807;BME280;14380;49.910;6.792;2023-03-15T03:43:31;98656.50;;;0.34;100.00
26807;BME280;14380;49.910;6.792;2023-03-15T03:45:58;98653.91;;;0.34;100.00
26807;BME280;14380;49.910;6.792;2023-03-15T03:48:25;98659.06;;;0.37;100.00
26807;BME280;14380;49.910;6.792;2023-03-15T03:50:51;98667.81;;;0.31;100.00
26807;BME280;14380;49.910;6.792;2023-03-15T03:53:19;98667.47;;;0.53;100.00
26807;BME280;14380;49.910;6.792;2023-03-15T03:55:46;98673.44;;;0.58;100.00
26807;BME280;14380;49.910;6.792;2023-03-15T03:58:12;98671.63;;;0.63;100.00
26807;BME280;14380;49.910;6.792;2023-03-15T04:00:39;98676.97;;;0.54;100.00
26807;BME280;14380;49.910;6.792;2023-03-15T04:03:06;98689.91;;;0.57;100.00
26807;BME280;14380;49.910;6.792;2023-03-15T04:05:33;98685.88;;;0.39;100.00
26807;BME280;14380;49.910;6.792;2023-03-15T04:08:00;98695.09;;;0.58;100.00
26807;BME280;14380;49.910;6.792;2023-03-15T04:10:28;98696.97;;;0.49;100.00
26807;BME280;14380;49.910;6.792;2023-03-15T04:13:00;98707.19;;;0.61;100.00
26807;BME280;14380;49.910;6.792;2023-03-15T04:15:27;98707.22;;;0.59;100.00
26807;BME280;14380;49.910;6.792;2023-03-15T04:17:54;98702.03;;;0.59;100.00
26807;BME280;14380;49.910;6.792;2023-03-15T04:20:21;98693.94;;;0.75;100.00
26807;BME280;14380;49.910;6.792;2023-03-15T04:22:48;98681.84;;;0.74;100.00
26807;BME280;14380;49.910;6.792;2023-03-15T04:25:14;98683.22;;;0.97;100.00
26807;BME280;14380;49.910;6.792;2023-03-15T04:27:42;98692.97;;;0.82;100.00
26807;BME280;14380;49.910;6.792;2023-03-15T04:30:10;98694.53;;;0.93;100.00
26807;BME280;14380;49.910;6.792;2023-03-15T04:32:37;98687.41;;;1.04;100.00
26807;BME280;14380;49.910;6.792;2023-03-15T04:35:04;98697.88;;;1.01;100.00
26807;BME280;14380;49.910;6.792;2023-03-15T04:37:31;98706.41;;;1.08;100.00
26807;BME280;14380;49.910;6.792;2023-03-15T04:39:57;98701.53;;;1.38;100.00
26807;BME280;14380;49.910;6.792;2023-03-15T04:42:24;98708.59;;;1.31;100.00
26807;BME280;14380;49.910;6.792;2023-03-15T04:44:52;98717.34;;;1.27;100.00
26807;BME280;14380;49.910;6.792;2023-03-15T04:47:19;98714.41;;;1.44;100.00
26807;BME280;14380;49.910;6.792;2023-03-15T04:49:46;98712.13;;;1.28;100.00
26807;BME280;14380;49.910;6.792;2023-03-15T04:52:13;98698.78;;;1.45;100.00
26807;BME280;14380;49.910;6.792;2023-03-15T04:54:39;98701.41;;;1.44;100.00
26807;BME280;14380;49.910;6.792;2023-03-15T04:57:06;98698.97;;;1.36;100.00
26807;BME280;14380;49.910;6.792;2023-03-15T04:59:33;98694.59;;;1.38;100.00
26807;BME280;14380;49.910;6.792;2023-03-15T05:02:00;98692.66;;;1.48;100.00
26807;BME280;14380;49.910;6.792;2023-03-15T05:04:27;98698.06;;;1.37;100.00
26807;BME280;14380;49.910;6.792;2023-03-15T05:06:53;98705.81;;;1.40;100.00
26807;BME280;14380;49.910;6.792;2023-03-15T05:09:20;98706.50;;;1.50;100.00
26807;BME280;14380;49.910;6.792;2023-03-15T05:11:46;98701.56;;;1.34;100.00
26807;BME280;14380;49.910;6.792;2023-03-15T05:14:13;98706.66;;;1.41;100.00
26807;BME280;14380;49.910;6.792;2023-03-15T05:16:39;98704.91;;;1.43;100.00
26807;BME280;14380;49.910;6.792;2023-03-15T05:19:08;98706.53;;;1.48;100.00
26807;BME280;14380;49.910;6.792;2023-03-15T05:21:35;98711.97;;;1.36;100.00
26807;BME280;14380;49.910;6.792;2023-03-15T05:24:02;98709.31;;;1.39;100.00
26807;BME280;14380;49.910;6.792;2023-03-15T05:26:28;98710.59;;;1.62;100.00
26807;BME280;14380;49.910;6.792;2023-03-15T05:28:55;98709.84;;;1.57;100.00
26807;BME280;14380;49.910;6.792;2023-03-15T05:31:21;98708.81;;;1.66;100.00
26807;BME280;14380;49.910;6.792;2023-03-15T05:33:48;98710.75;;;1.54;100.00
26807;BME280;14380;49.910;6.792;2023-03-15T05:36:20;98720.25;;;1.57;100.00
26807;BME280;14380;49.910;6.792;2023-03-15T05:38:46;98717.34;;;1.72;100.00
26807;BME280;14380;49.910;6.792;2023-03-15T05:41:12;98726.16;;;1.67;100.00
26807;BME280;14380;49.910;6.792;2023-03-15T05:43:42;98731.19;;;1.76;100.00
26807;BME280;14380;49.910;6.792;2023-03-15T05:46:08;98720.84;;;1.71;100.00
26807;BME280;14380;49.910;6.792;2023-03-15T05:48:34;98725.28;;;1.66;100.00
26807;BME280;14380;49.910;6.792;2023-03-15T05:51:01;98732.28;;;1.62;100.00
26807;BME280;14380;49.910;6.792;2023-03-15T05:53:29;98728.63;;;1.73;100.00
26807;BME280;14380;49.910;6.792;2023-03-15T05:55:55;98740.81;;;1.69;100.00
26807;BME280;14380;49.910;6.792;2023-03-15T05:58:22;98749.84;;;1.51;100.00
26807;BME280;14380;49.910;6.792;2023-03-15T06:00:49;98745.25;;;1.66;100.00
26807;BME280;14380;49.910;6.792;2023-03-15T06:03:15;98747.75;;;1.72;100.00
26807;BME280;14380;49.910;6.792;2023-03-15T06:05:42;98748.75;;;1.65;100.00
26807;BME280;14380;49.910;6.792;2023-03-15T06:08:08;98744.19;;;1.74;100.00
26807;BME280;14380;49.910;6.792;2023-03-15T06:10:36;98747.59;;;1.78;100.00
26807;BME280;14380;49.910;6.792;2023-03-15T06:13:03;98757.53;;;2.01;100.00
26807;BME280;14380;49.910;6.792;2023-03-15T06:15:29;98751.41;;;1.60;100.00
26807;BME280;14380;49.910;6.792;2023-03-15T06:17:56;98753.59;;;1.82;100.00
26807;BME280;14380;49.910;6.792;2023-03-15T06:20:22;98752.56;;;1.90;100.00
26807;BME280;14380;49.910;6.792;2023-03-15T06:22:49;98760.03;;;1.62;100.00
26807;BME280;14380;49.910;6.792;2023-03-15T06:25:15;98757.25;;;1.73;100.00
26807;BME280;14380;49.910;6.792;2023-03-15T06:27:44;98761.25;;;1.91;100.00
26807;BME280;14380;49.910;6.792;2023-03-15T06:30:11;98757.81;;;1.89;100.00
26807;BME280;14380;49.910;6.792;2023-03-15T06:32:37;98754.44;;;1.84;100.00
26807;BME280;14380;49.910;6.792;2023-03-15T06:35:04;98759.09;;;1.68;100.00
26807;BME280;14380;49.910;6.792;2023-03-15T06:37:31;98760.50;;;1.84;100.00
26807;BME280;14380;49.910;6.792;2023-03-15T06:40:00;98757.06;;;1.82;100.00
26807;BME280;14380;49.910;6.792;2023-03-15T06:42:26;98755.81;;;2.00;100.00
26807;BME280;14380;49.910;6.792;2023-03-15T06:44:54;98751.25;;;1.69;100.00
26807;BME280;14380;49.910;6.792;2023-03-15T06:47:21;98751.59;;;1.96;100.00
26807;BME280;14380;49.910;6.792;2023-03-15T06:49:47;98755.34;;;1.81;100.00
26807;BME280;14380;49.910;6.792;2023-03-15T06:52:15;98756.06;;;1.89;100.00
26807;BME280;14380;49.910;6.792;2023-03-15T06:54:41;98759.41;;;1.96;100.00
26807;BME280;14380;49.910;6.792;2023-03-15T06:57:08;98764.13;;;1.75;100.00
26807;BME280;14380;49.910;6.792;2023-03-15T06:59:34;98764.94;;;2.21;100.00
26807;BME280;14380;49.910;6.792;2023-03-15T07:02:03;98760.25;;;1.97;100.00
26807;BME280;14380;49.910;6.792;2023-03-15T07:04:29;98766.03;;;2.11;100.00
26807;BME280;14380;49.910;6.792;2023-03-15T07:06:56;98770.72;;;2.36;100.00
26807;BME280;14380;49.910;6.792;2023-03-15T07:09:22;98766.91;;;2.51;100.00
26807;BME280;14380;49.910;6.792;2023-03-15T07:11:49;98775.91;;;2.37;100.00
26807;BME280;14380;49.910;6.792;2023-03-15T07:14:15;98780.81;;;2.51;100.00
26807;BME280;14380;49.910;6.792;2023-03-15T07:16:42;98781.44;;;2.63;100.00
26807;BME280;14380;49.910;6.792;2023-03-15T07:19:10;98792.16;;;2.49;100.00
26807;BME280;14380;49.910;6.792;2023-03-15T07:21:36;98796.34;;;2.56;100.00
26807;BME280;14380;49.910;6.792;2023-03-15T07:24:03;98799.13;;;2.47;100.00
26807;BME280;14380;49.910;6.792;2023-03-15T07:26:29;98802.88;;;2.74;100.00
26807;BME280;14380;49.910;6.792;2023-03-15T07:28:56;98816.47;;;2.49;100.00
26807;BME280;14380;49.910;6.792;2023-03-15T07:31:22;98811.03;;;2.60;100.00
26807;BME280;14380;49.910;6.792;2023-03-15T07:33:49;98819.09;;;2.48;100.00
26807;BME280;14380;49.910;6.792;2023-03-15T07:36:17;98819.59;;;2.65;100.00
26807;BME280;14380;49.910;6.792;2023-03-15T07:38:43;98820.75;;;2.52;100.00
26807;BME280;14380;49.910;6.792;2023-03-15T07:41:11;98826.09;;;2.46;100.00
26807;BME280;14380;49.910;6.792;2023-03-15T07:43:37;98830.22;;;2.56;100.00
26807;BME280;14380;49.910;6.792;2023-03-15T07:46:04;98833.31;;;2.74;100.00
26807;BME280;14380;49.910;6.792;2023-03-15T07:48:31;98832.06;;;2.51;100.00
26807;BME280;14380;49.910;6.792;2023-03-15T07:50:58;98843.91;;;2.66;100.00
26807;BME280;14380;49.910;6.792;2023-03-15T07:53:26;98841.28;;;2.66;100.00
26807;BME280;14380;49.910;6.792;2023-03-15T07:55:53;98848.16;;;2.70;100.00
26807;BME280;14380;49.910;6.792;2023-03-15T07:58:19;98849.94;;;2.70;100.00
26807;BME280;14380;49.910;6.792;2023-03-15T08:00:46;98847.13;;;2.77;100.00
26807;BME280;14380;49.910;6.792;2023-03-15T08:03:12;98859.59;;;3.04;100.00
26807;BME280;14380;49.910;6.792;2023-03-15T08:05:39;98862.00;;;3.11;100.00
26807;BME280;14380;49.910;6.792;2023-03-15T08:08:06;98869.97;;;3.07;100.00
26807;BME280;14380;49.910;6.792;2023-03-15T08:10:34;98868.19;;;3.09;100.00
26807;BME280;14380;49.910;6.792;2023-03-15T08:13:00;98873.56;;;3.39;100.00
26807;BME280;14380;49.910;6.792;2023-03-15T08:15:27;98879.91;;;3.65;100.00
26807;BME280;14380;49.910;6.792;2023-03-15T08:17:53;98879.22;;;3.20;100.00
26807;BME280;14380;49.910;6.792;2023-03-15T08:20:20;98884.19;;;3.31;100.00
26807;BME280;14380;49.910;6.792;2023-03-15T08:22:47;98878.47;;;3.15;100.00
26807;BME280;14380;49.910;6.792;2023-03-15T08:25:18;98883.16;;;3.37;100.00
26807;BME280;14380;49.910;6.792;2023-03-15T08:27:46;98895.22;;;3.42;100.00
26807;BME280;14380;49.910;6.792;2023-03-15T08:30:14;98899.28;;;3.17;100.00
26807;BME280;14380;49.910;6.792;2023-03-15T08:32:42;98899.16;;;3.23;100.00
26807;BME280;14380;49.910;6.792;2023-03-15T08:35:09;98901.78;;;3.59;100.00
26807;BME280;14380;49.910;6.792;2023-03-15T08:37:36;98899.78;;;3.33;100.00
26807;BME280;14380;49.910;6.792;2023-03-15T08:40:04;98909.31;;;3.35;100.00
26807;BME280;14380;49.910;6.792;2023-03-15T08:42:34;98909.81;;;3.51;100.00
26807;BME280;14380;49.910;6.792;2023-03-15T08:45:02;98907.38;;;3.80;100.00
26807;BME280;14380;49.910;6.792;2023-03-15T08:47:29;98906.47;;;3.81;100.00
26807;BME280;14380;49.910;6.792;2023-03-15T08:49:55;98912.84;;;4.04;100.00
26807;BME280;14380;49.910;6.792;2023-03-15T08:52:22;98909.94;;;4.16;100.00
26807;BME280;14380;49.910;6.792;2023-03-15T08:54:48;98920.31;;;4.51;100.00
26807;BME280;14380;49.910;6.792;2023-03-15T08:57:15;98920.25;;;4.54;100.00
26807;BME280;14380;49.910;6.792;2023-03-15T08:59:41;98928.94;;;4.54;100.00
26807;BME280;14380;49.910;6.792;2023-03-15T09:02:10;98924.59;;;4.85;100.00
26807;BME280;14380;49.910;6.792;2023-03-15T09:04:36;98928.34;;;4.76;100.00
26807;BME280;14380;49.910;6.792;2023-03-15T09:07:03;98938.13;;;4.99;100.00
26807;BME280;14380;49.910;6.792;2023-03-15T09:09:30;98934.38;;;4.46;100.00
26807;BME280;14380;49.910;6.792;2023-03-15T09:11:57;98937.81;;;4.15;100.00
26807;BME280;14380;49.910;6.792;2023-03-15T09:14:24;98930.91;;;4.13;100.00
26807;BME280;14380;49.910;6.792;2023-03-15T09:16:50;98942.97;;;4.83;100.00
26807;BME280;14380;49.910;6.792;2023-03-15T09:19:18;98949.97;;;5.11;100.00
26807;BME280;14380;49.910;6.792;2023-03-15T09:21:45;98949.53;;;5.27;100.00
26807;BME280;14380;49.910;6.792;2023-03-15T09:24:12;98941.31;;;5.66;100.00
26807;BME280;14380;49.910;6.792;2023-03-15T09:26:39;98949.00;;;5.44;100.00
26807;BME280;14380;49.910;6.792;2023-03-15T09:29:06;98950.72;;;4.55;100.00
26807;BME280;14380;49.910;6.792;2023-03-15T09:31:33;98956.22;;;5.07;100.00
26807;BME280;14380;49.910;6.792;2023-03-15T09:34:00;98964.94;;;4.76;100.00
26807;BME280;14380;49.910;6.792;2023-03-15T09:36:28;98961.09;;;4.58;100.00
26807;BME280;14380;49.910;6.792;2023-03-15T09:38:55;98962.78;;;4.90;100.00
26807;BME280;14380;49.910;6.792;2023-03-15T09:41:36;98965.94;;;5.02;100.00
26807;BME280;14380;49.910;6.792;2023-03-15T09:44:13;98971.25;;;5.00;100.00
26807;BME280;14380;49.910;6.792;2023-03-15T09:46:50;98969.22;;;4.79;100.00
26807;BME280;14380;49.910;6.792;2023-03-15T09:49:31;98966.41;;;5.16;100.00
26807;BME280;14380;49.910;6.792;2023-03-15T09:52:03;98978.66;;;6.01;100.00
26807;BME280;14380;49.910;6.792;2023-03-15T09:54:38;98979.19;;;5.56;100.00
26807;BME280;14380;49.910;6.792;2023-03-15T09:57:11;98980.47;;;5.98;100.00
26807;BME280;14380;49.910;6.792;2023-03-15T09:59:42;98984.34;;;5.59;100.00
26807;BME280;14380;49.910;6.792;2023-03-15T10:02:16;98982.66;;;5.56;100.00
26807;BME280;14380;49.910;6.792;2023-03-15T10:04:46;98983.78;;;5.47;100.00
26807;BME280;14380;49.910;6.792;2023-03-15T10:07:16;98988.13;;;5.77;100.00
26807;BME280;14380;49.910;6.792;2023-03-15T10:09:44;98981.81;;;6.11;100.00
26807;BME280;14380;49.910;6.792;2023-03-15T10:12:12;98984.78;;;6.52;100.00
26807;BME280;14380;49.910;6.792;2023-03-15T10:15:05;98987.97;;;6.86;100.00
26807;BME280;14380;49.910;6.792;2023-03-15T10:17:44;98983.31;;;6.94;100.00
26807;BME280;14380;49.910;6.792;2023-03-15T10:20:16;98981.69;;;7.14;100.00
26807;BME280;14380;49.910;6.792;2023-03-15T10:22:49;98972.28;;;7.08;100.00
26807;BME280;14380;49.910;6.792;2023-03-15T10:25:20;98973.41;;;6.77;97.76
26807;BME280;14380;49.910;6.792;2023-03-15T10:27:53;98968.44;;;6.69;96.48
26807;BME280;14380;49.910;6.792;2023-03-15T10:30:22;98979.03;;;6.66;95.91
26807;BME280;14380;49.910;6.792;2023-03-15T10:32:54;98969.91;;;6.53;94.63
26807;BME280;14380;49.910;6.792;2023-03-15T10:35:21;98970.22;;;6.93;96.57
26807;BME280;14380;49.910;6.792;2023-03-15T10:37:49;98978.56;;;6.80;96.57
26807;BME280;14380;49.910;6.792;2023-03-15T10:40:39;98972.63;;;6.75;98.08
26807;BME280;14380;49.910;6.792;2023-03-15T10:43:15;98981.84;;;6.36;96.67
26807;BME280;14380;49.910;6.792;2023-03-15T10:45:45;98971.72;;;6.76;96.62
26807;BME280;14380;49.910;6.792;2023-03-15T10:48:12;98977.31;;;6.65;94.96
26807;BME280;14380;49.910;6.792;2023-03-15T10:50:39;98977.41;;;7.11;94.11
26807;BME280;14380;49.910;6.792;2023-03-15T10:53:10;98980.81;;;6.90;94.70
26807;BME280;14380;49.910;6.792;2023-03-15T10:55:42;98979.75;;;6.95;96.91
26807;BME280;14380;49.910;6.792;2023-03-15T10:58:19;98983.03;;;6.77;92.39
26807;BME280;14380;49.910;6.792;2023-03-15T11:00:48;98983.16;;;6.74;95.40
26807;BME280;14380;49.910;6.792;2023-03-15T11:03:18;98983.25;;;6.70;96.49
26807;BME280;14380;49.910;6.792;2023-03-15T11:05:47;98988.97;;;6.06;95.12
26807;BME280;14380;49.910;6.792;2023-03-15T11:08:17;98983.06;;;6.51;93.97
26807;BME280;14380;49.910;6.792;2023-03-15T11:10:44;98971.63;;;6.54;95.22
26807;BME280;14380;49.910;6.792;2023-03-15T11:13:17;98978.09;;;6.44;95.76
26807;BME280;14380;49.910;6.792;2023-03-15T11:15:53;98976.66;;;6.84;96.76
26807;BME280;14380;49.910;6.792;2023-03-15T11:18:26;98981.66;;;7.16;97.51
26807;BME280;14380;49.910;6.792;2023-03-15T11:20:54;98975.00;;;7.05;94.74
26807;BME280;14380;49.910;6.792;2023-03-15T11:23:25;98974.63;;;7.38;95.10
26807;BME280;14380;49.910;6.792;2023-03-15T11:25:53;98988.25;;;7.02;93.04
26807;BME280;14380;49.910;6.792;2023-03-15T11:28:23;98980.34;;;7.50;93.17
26807;BME280;14380;49.910;6.792;2023-03-15T11:30:51;98990.22;;;7.21;89.22
26807;BME280;14380;49.910;6.792;2023-03-15T11:33:26;98984.75;;;7.71;89.48
26807;BME280;14380;49.910;6.792;2023-03-15T11:35:58;98987.53;;;7.89;90.36
26807;BME280;14380;49.910;6.792;2023-03-15T11:38:32;98987.25;;;9.00;90.12
26807;BME280;14380;49.910;6.792;2023-03-15T11:41:04;98988.00;;;9.42;87.86
26807;BME280;14380;49.910;6.792;2023-03-15T11:43:47;98986.28;;;9.41;91.57
26807;BME280;14380;49.910;6.792;2023-03-15T11:46:20;98989.22;;;8.12;85.70
26807;BME280;14380;49.910;6.792;2023-03-15T11:48:51;98996.97;;;7.95;88.71
26807;BME280;14380;49.910;6.792;2023-03-15T11:51:20;98997.22;;;7.88;90.07
26807;BME280;14380;49.910;6.792;2023-03-15T11:54:06;99001.72;;;7.85;88.84
26807;BME280;14380;49.910;6.792;2023-03-15T11:56:49;99010.47;;;7.63;89.61
26807;BME280;14380;49.910;6.792;2023-03-15T11:59:18;99011.16;;;8.13;87.64
26807;BME280;14380;49.910;6.792;2023-03-15T12:01:47;99014.50;;;7.94;86.58
26807;BME280;14380;49.910;6.792;2023-03-15T12:04:40;99030.34;;;7.48;85.74
26807;BME280;14380;49.910;6.792;2023-03-15T12:10:31;99032.34;;;7.64;86.27
26807;BME280;14380;49.910;6.792;2023-03-15T12:12:59;99034.41;;;7.08;82.69
26807;BME280;14380;49.910;6.792;2023-03-15T12:15:42;99043.34;;;6.53;80.83
26807;BME280;14380;49.910;6.792;2023-03-15T12:18:14;99044.16;;;6.80;82.29
26807;BME280;14380;49.910;6.792;2023-03-15T12:20:48;99041.16;;;6.66;81.95
26807;BME280;14380;49.910;6.792;2023-03-15T12:23:30;99042.19;;;6.62;82.46
26807;BME280;14380;49.910;6.792;2023-03-15T12:26:05;99025.81;;;7.52;82.73
26807;BME280;14380;49.910;6.792;2023-03-15T12:28:34;99019.41;;;8.24;82.24
26807;BME280;14380;49.910;6.792;2023-03-15T12:31:03;99023.38;;;8.57;77.09
26807;BME280;14380;49.910;6.792;2023-03-15T12:33:33;99020.69;;;8.58;75.55
26807;BME280;14380;49.910;6.792;2023-03-15T12:36:14;99012.31;;;8.69;70.74
26807;BME280;14380;49.910;6.792;2023-03-15T12:38:53;99010.13;;;9.19;74.14
26807;BME280;14380;49.910;6.792;2023-03-15T12:41:36;99003.22;;;9.55;72.07
26807;BME280;14380;49.910;6.792;2023-03-15T12:44:23;99006.47;;;9.02;71.48
26807;BME280;14380;49.910;6.792;2023-03-15T12:46:58;99006.31;;;9.26;69.12
26807;BME280;14380;49.910;6.792;2023-03-15T12:49:35;98991.47;;;9.23;66.63
26807;BME280;14380;49.910;6.792;2023-03-15T12:52:03;98998.53;;;9.42;65.07
26807;BME280;14380;49.910;6.792;2023-03-15T12:54:36;98994.03;;;8.66;61.99
26807;BME280;14380;49.910;6.792;2023-03-15T12:57:09;98996.69;;;9.44;67.09
26807;BME280;14380;49.910;6.792;2023-03-15T12:59:45;99001.25;;;8.61;62.34
26807;BME280;14380;49.910;6.792;2023-03-15T13:02:31;99002.06;;;9.03;66.07
26807;BME280;14380;49.910;6.792;2023-03-15T13:05:11;99001.44;;;8.77;64.54
26807;BME280;14380;49.910;6.792;2023-03-15T13:10:43;99006.19;;;8.69;68.85
26807;BME280;14380;49.910;6.792;2023-03-15T13:13:24;99005.81;;;8.14;67.25
26807;BME280;14380;49.910;6.792;2023-03-15T13:16:15;99008.13;;;8.43;68.03
26807;BME280;14380;49.910;6.792;2023-03-15T13:18:50;99002.22;;;8.38;67.56